sensor_id;sensor_type;location;lat;lon;timestamp;P1;durP1;ratioP1;P2;durP2;ratioP2
6113;SDS011;3087;48.392;10.836;2022-12-18T00:01:40;51.83;;;28.97;;
6113;SDS011;3087;48.392;10.836;2022-12-18T00:04:06;50.27;;;26.47;;
6113;SDS011;3087;48.392;10.836;2022-12-18T00:06:39;46.87;;;26.10;;
6113;SDS011;3087;48.392;10.836;2022-12-18T00:09:05;51.13;;;26.70;;
6113;SDS011;3087;48.392;10.836;2022-12-18T00:11:30;51.97;;;27.90;;
6113;SDS011;3087;48.392;10.836;2022-12-18T00:13:57;44.70;;;23.97;;
6113;SDS011;3087;48.392;10.836;2022-12-18T00:16:24;55.47;;;28.77;;
6113;SDS011;3087;48.392;10.836;2022-12-18T00:18:52;48.33;;;26.33;;
6113;SDS011;3087;48.392;10.836;2022-12-18T00:21:19;50.73;;;27.50;;
6113;SDS011;3087;48.392;10.836;2022-12-18T00:23:46;46.83;;;27.10;;
6113;SDS011;3087;48.392;10.836;2022-12-18T00:26:17;49.77;;;28.13;;
6113;SDS011;3087;48.392;10.836;2022-12-18T00:28:43;53.03;;;28.30;;
6113;SDS011;3087;48.392;10.836;2022-12-18T00:31:10;48.23;;;27.07;;
6113;SDS011;3087;48.392;10.836;2022-12-18T00:33:44;49.60;;;26.63;;
6113;SDS011;3087;48.392;10.836;2022-12-18T00:36:11;47.00;;;26.50;;
6113;SDS011;3087;48.392;10.836;2022-12-18T00:38:38;40.03;;;24.37;;
6113;SDS011;3087;48.392;10.836;2022-12-18T00:41:05;42.70;;;23.73;;
6113;SDS011;3087;48.392;10.836;2022-12-18T00:43:34;43.70;;;25.23;;
6113;SDS011;3087;48.392;10.836;2022-12-18T00:46:00;47.13;;;25.70;;
6113;SDS011;3087;48.392;10.836;2022-12-18T00:48:26;45.23;;;24.77;;
6113;SDS011;3087;48.392;10.836;2022-12-18T00:50:52;43.77;;;25.43;;
6113;SDS011;3087;48.392;10.836;2022-12-18T00:53:17;45.00;;;22.63;;
6113;SDS011;3087;48.392;10.836;2022-12-18T00:55:43;41.27;;;24.07;;
6113;SDS011;3087;48.392;10.836;2022-12-18T00:58:11;40.30;;;23.63;;
6113;SDS011;3087;48.392;10.836;2022-12-18T01:00:37;43.37;;;23.80;;
6113;SDS011;3087;48.392;10.836;2022-12-18T01:03:03;38.20;;;21.60;;
6113;SDS011;3087;48.392;10.836;2022-12-18T01:05:29;37.47;;;22.17;;
6113;SDS011;3087;48.392;10.836;2022-12-18T01:07:55;41.67;;;23.03;;
6113;SDS011;3087;48.392;10.836;2022-12-18T01:10:21;36.27;;;21.03;;
6113;SDS011;3087;48.392;10.836;2022-12-18T01:12:47;39.50;;;21.93;;
6113;SDS011;3087;48.392;10.836;2022-12-18T01:15:13;39.30;;;22.50;;
6113;SDS011;3087;48.392;10.836;2022-12-18T01:17:39;35.87;;;20.60;;
6113;SDS011;3087;48.392;10.836;2022-12-18T01:20:05;39.70;;;23.30;;
6113;SDS011;3087;48.392;10.836;2022-12-18T01:22:35;37.17;;;21.73;;
6113;SDS011;3087;48.392;10.836;2022-12-18T01:25:01;37.30;;;20.37;;
6113;SDS011;3087;48.392;10.836;2022-12-18T01:27:27;50.70;;;25.37;;
6113;SDS011;3087;48.392;10.836;2022-12-18T01:29:53;48.37;;;25.33;;
6113;SDS011;3087;48.392;10.836;2022-12-18T01:32:18;36.93;;;21.87;;
6113;SDS011;3087;48.392;10.836;2022-12-18T01:34:44;49.70;;;25.53;;
6113;SDS011;3087;48.392;10.836;2022-12-18T01:37:10;50.50;;;27.13;;
6113;SDS011;3087;48.392;10.836;2022-12-18T01:39:36;46.10;;;25.83;;
6113;SDS011;3087;48.392;10.836;2022-12-18T01:42:09;46.73;;;24.67;;
6113;SDS011;3087;48.392;10.836;2022-12-18T01:44:57;49.57;;;27.27;;
6113;SDS011;3087;48.392;10.836;2022-12-18T01:49:57;51.77;;;26.30;;
6113;SDS011;3087;48.392;10.836;2022-12-18T01:52:25;40.17;;;22.10;;
6113;SDS011;3087;48.392;10.836;2022-12-18T01:54:54;39.80;;;21.97;;
6113;SDS011;3087;48.392;10.836;2022-12-18T01:57:20;39.73;;;22.07;;
6113;SDS011;3087;48.392;10.836;2022-12-18T01:59:47;42.60;;;21.80;;
6113;SDS011;3087;48.392;10.836;2022-12-18T02:02:17;40.63;;;20.60;;
6113;SDS011;3087;48.392;10.836;2022-12-18T02:04:44;43.63;;;24.03;;
6113;SDS011;3087;48.392;10.836;2022-12-18T02:07:19;43.73;;;22.93;;
6113;SDS011;3087;48.392;10.836;2022-12-18T02:15:59;43.87;;;22.50;;
6113;SDS011;3087;48.392;10.836;2022-12-18T02:18:33;48.33;;;23.47;;
6113;SDS011;3087;48.392;10.836;2022-12-18T02:21:08;44.47;;;23.20;;
6113;SDS011;3087;48.392;10.836;2022-12-18T02:26:43;48.70;;;24.50;;
6113;SDS011;3087;48.392;10.836;2022-12-18T02:29:18;45.93;;;24.07;;
6113;SDS011;3087;48.392;10.836;2022-12-18T02:31:55;46.10;;;22.77;;
6113;SDS011;3087;48.392;10.836;2022-12-18T02:34:23;42.70;;;23.17;;
6113;SDS011;3087;48.392;10.836;2022-12-18T02:36:54;52.73;;;23.90;;
6113;SDS011;3087;48.392;10.836;2022-12-18T02:39:22;51.00;;;24.17;;
6113;SDS011;3087;48.392;10.836;2022-12-18T02:41:51;45.97;;;22.47;;
6113;SDS011;3087;48.392;10.836;2022-12-18T02:44:17;42.43;;;21.80;;
6113;SDS011;3087;48.392;10.836;2022-12-18T02:46:44;41.53;;;21.50;;
6113;SDS011;3087;48.392;10.836;2022-12-18T02:55:06;44.57;;;22.53;;
6113;SDS011;3087;48.392;10.836;2022-12-18T02:57:50;48.50;;;23.67;;
6113;SDS011;3087;48.392;10.836;2022-12-18T03:03:14;41.73;;;21.27;;
6113;SDS011;3087;48.392;10.836;2022-12-18T03:05:50;42.97;;;21.63;;
6113;SDS011;3087;48.392;10.836;2022-12-18T03:08:31;44.33;;;21.80;;
6113;SDS011;3087;48.392;10.836;2022-12-18T03:11:04;40.20;;;21.57;;
6113;SDS011;3087;48.392;10.836;2022-12-18T03:16:18;44.03;;;21.10;;
6113;SDS011;3087;48.392;10.836;2022-12-18T03:18:57;43.67;;;21.73;;
6113;SDS011;3087;48.392;10.836;2022-12-18T03:21:28;44.40;;;21.27;;
6113;SDS011;3087;48.392;10.836;2022-12-18T03:23:59;45.63;;;21.97;;
6113;SDS011;3087;48.392;10.836;2022-12-18T03:26:26;44.77;;;22.60;;
6113;SDS011;3087;48.392;10.836;2022-12-18T03:28:54;39.37;;;20.73;;
6113;SDS011;3087;48.392;10.836;2022-12-18T03:31:24;41.60;;;20.53;;
6113;SDS011;3087;48.392;10.836;2022-12-18T03:33:53;44.77;;;22.70;;
6113;SDS011;3087;48.392;10.836;2022-12-18T03:36:22;41.27;;;20.43;;
6113;SDS011;3087;48.392;10.836;2022-12-18T03:38:48;40.37;;;20.73;;
6113;SDS011;3087;48.392;10.836;2022-12-18T03:52:37;38.40;;;20.43;;
6113;SDS011;3087;48.392;10.836;2022-12-18T03:55:08;36.90;;;19.20;;
6113;SDS011;3087;48.392;10.836;2022-12-18T03:57:34;34.47;;;17.73;;
6113;SDS011;3087;48.392;10.836;2022-12-18T04:00:03;42.47;;;19.57;;
6113;SDS011;3087;48.392;10.836;2022-12-18T04:02:36;38.13;;;19.07;;
6113;SDS011;3087;48.392;10.836;2022-12-18T04:05:05;38.40;;;18.60;;
6113;SDS011;3087;48.392;10.836;2022-12-18T04:07:33;35.87;;;18.73;;
6113;SDS011;3087;48.392;10.836;2022-12-18T04:09:59;35.33;;;18.30;;
6113;SDS011;3087;48.392;10.836;2022-12-18T04:12:28;42.27;;;20.93;;
6113;SDS011;3087;48.392;10.836;2022-12-18T04:14:54;38.67;;;20.20;;
6113;SDS011;3087;48.392;10.836;2022-12-18T04:17:20;41.67;;;19.30;;
6113;SDS011;3087;48.392;10.836;2022-12-18T04:19:46;36.83;;;19.73;;
6113;SDS011;3087;48.392;10.836;2022-12-18T04:22:11;41.53;;;19.43;;
6113;SDS011;3087;48.392;10.836;2022-12-18T04:24:37;40.27;;;20.27;;
6113;SDS011;3087;48.392;10.836;2022-12-18T04:27:03;36.60;;;19.10;;
6113;SDS011;3087;48.392;10.836;2022-12-18T04:29:29;38.73;;;19.37;;
6113;SDS011;3087;48.392;10.836;2022-12-18T04:31:55;36.00;;;17.63;;
6113;SDS011;3087;48.392;10.836;2022-12-18T04:34:20;42.07;;;19.30;;
6113;SDS011;3087;48.392;10.836;2022-12-18T04:36:46;39.60;;;19.43;;
6113;SDS011;3087;48.392;10.836;2022-12-18T04:39:12;38.60;;;19.93;;
6113;SDS011;3087;48.392;10.836;2022-12-18T04:41:39;36.57;;;18.60;;
6113;SDS011;3087;48.392;10.836;2022-12-18T04:44:04;40.43;;;19.27;;
6113;SDS011;3087;48.392;10.836;2022-12-18T04:46:30;34.70;;;19.47;;
6113;SDS011;3087;48.392;10.836;2022-12-18T04:48:56;34.37;;;18.30;;
6113;SDS011;3087;48.392;10.836;2022-12-18T04:51:21;39.20;;;19.07;;
6113;SDS011;3087;48.392;10.836;2022-12-18T04:53:47;36.67;;;19.53;;
6113;SDS011;3087;48.392;10.836;2022-12-18T04:56:13;38.97;;;19.63;;
6113;SDS011;3087;48.392;10.836;2022-12-18T04:58:41;36.13;;;18.20;;
6113;SDS011;3087;48.392;10.836;2022-12-18T05:01:08;40.13;;;20.60;;
6113;SDS011;3087;48.392;10.836;2022-12-18T05:03:35;39.23;;;19.70;;
6113;SDS011;3087;48.392;10.836;2022-12-18T05:06:01;40.00;;;20.40;;
6113;SDS011;3087;48.392;10.836;2022-12-18T05:08:27;37.17;;;19.50;;
6113;SDS011;3087;48.392;10.836;2022-12-18T05:13:25;41.27;;;20.37;;
6113;SDS011;3087;48.392;10.836;2022-12-18T05:15:51;38.37;;;19.63;;
6113;SDS011;3087;48.392;10.836;2022-12-18T05:18:17;39.70;;;20.20;;
6113;SDS011;3087;48.392;10.836;2022-12-18T05:20:43;38.63;;;19.17;;
6113;SDS011;3087;48.392;10.836;2022-12-18T05:23:09;37.00;;;19.90;;
6113;SDS011;3087;48.392;10.836;2022-12-18T05:25:34;39.80;;;21.03;;
6113;SDS011;3087;48.392;10.836;2022-12-18T05:28:00;35.63;;;19.73;;
6113;SDS011;3087;48.392;10.836;2022-12-18T05:30:26;43.57;;;20.20;;
6113;SDS011;3087;48.392;10.836;2022-12-18T05:32:52;43.40;;;20.50;;
6113;SDS011;3087;48.392;10.836;2022-12-18T05:35:18;41.43;;;20.40;;
6113;SDS011;3087;48.392;10.836;2022-12-18T05:37:43;40.97;;;20.97;;
6113;SDS011;3087;48.392;10.836;2022-12-18T05:40:09;42.47;;;20.97;;
6113;SDS011;3087;48.392;10.836;2022-12-18T05:42:35;37.67;;;19.53;;
6113;SDS011;3087;48.392;10.836;2022-12-18T05:45:01;42.33;;;19.43;;
6113;SDS011;3087;48.392;10.836;2022-12-18T05:47:28;36.73;;;19.60;;
6113;SDS011;3087;48.392;10.836;2022-12-18T05:49:53;37.80;;;18.63;;
6113;SDS011;3087;48.392;10.836;2022-12-18T05:52:19;38.33;;;20.07;;
6113;SDS011;3087;48.392;10.836;2022-12-18T05:54:45;39.33;;;21.93;;
6113;SDS011;3087;48.392;10.836;2022-12-18T05:57:11;41.03;;;20.10;;
6113;SDS011;3087;48.392;10.836;2022-12-18T05:59:36;45.93;;;20.60;;
6113;SDS011;3087;48.392;10.836;2022-12-18T06:02:02;40.60;;;20.83;;
6113;SDS011;3087;48.392;10.836;2022-12-18T06:04:31;40.23;;;20.93;;
6113;SDS011;3087;48.392;10.836;2022-12-18T06:06:57;38.40;;;20.10;;
6113;SDS011;3087;48.392;10.836;2022-12-18T06:09:22;37.67;;;19.73;;
6113;SDS011;3087;48.392;10.836;2022-12-18T06:11:48;44.20;;;21.70;;
6113;SDS011;3087;48.392;10.836;2022-12-18T06:14:16;44.23;;;21.17;;
6113;SDS011;3087;48.392;10.836;2022-12-18T06:16:42;42.33;;;20.73;;
6113;SDS011;3087;48.392;10.836;2022-12-18T06:19:07;35.73;;;19.20;;
6113;SDS011;3087;48.392;10.836;2022-12-18T06:21:38;40.30;;;21.53;;
6113;SDS011;3087;48.392;10.836;2022-12-18T06:24:04;43.57;;;20.70;;
6113;SDS011;3087;48.392;10.836;2022-12-18T06:26:30;37.80;;;18.97;;
6113;SDS011;3087;48.392;10.836;2022-12-18T06:28:55;41.47;;;20.50;;
6113;SDS011;3087;48.392;10.836;2022-12-18T06:31:21;46.30;;;20.73;;
6113;SDS011;3087;48.392;10.836;2022-12-18T06:33:46;42.97;;;20.93;;
6113;SDS011;3087;48.392;10.836;2022-12-18T06:36:12;38.00;;;19.80;;
6113;SDS011;3087;48.392;10.836;2022-12-18T06:38:40;39.10;;;19.60;;
6113;SDS011;3087;48.392;10.836;2022-12-18T06:41:07;59.17;;;25.57;;
6113;SDS011;3087;48.392;10.836;2022-12-18T06:43:34;44.73;;;22.67;;
6113;SDS011;3087;48.392;10.836;2022-12-18T06:46:00;40.67;;;20.97;;
6113;SDS011;3087;48.392;10.836;2022-12-18T06:48:27;45.70;;;21.40;;
6113;SDS011;3087;48.392;10.836;2022-12-18T06:50:53;45.70;;;22.73;;
6113;SDS011;3087;48.392;10.836;2022-12-18T06:53:18;39.70;;;20.30;;
6113;SDS011;3087;48.392;10.836;2022-12-18T06:55:44;41.13;;;19.33;;
6113;SDS011;3087;48.392;10.836;2022-12-18T06:58:09;48.90;;;22.93;;
6113;SDS011;3087;48.392;10.836;2022-12-18T07:00:35;39.70;;;21.57;;
6113;SDS011;3087;48.392;10.836;2022-12-18T07:03:01;42.07;;;21.43;;
6113;SDS011;3087;48.392;10.836;2022-12-18T07:05:26;37.50;;;19.97;;
6113;SDS011;3087;48.392;10.836;2022-12-18T07:07:52;38.10;;;19.40;;
6113;SDS011;3087;48.392;10.836;2022-12-18T07:10:18;39.40;;;19.40;;
6113;SDS011;3087;48.392;10.836;2022-12-18T07:12:43;39.43;;;19.77;;
6113;SDS011;3087;48.392;10.836;2022-12-18T07:15:09;39.07;;;19.73;;
6113;SDS011;3087;48.392;10.836;2022-12-18T07:17:35;37.17;;;19.27;;
6113;SDS011;3087;48.392;10.836;2022-12-18T07:20:01;39.37;;;21.13;;
6113;SDS011;3087;48.392;10.836;2022-12-18T07:22:26;37.40;;;20.10;;
6113;SDS011;3087;48.392;10.836;2022-12-18T07:24:52;36.97;;;18.97;;
6113;SDS011;3087;48.392;10.836;2022-12-18T07:27:18;39.47;;;21.10;;
6113;SDS011;3087;48.392;10.836;2022-12-18T07:29:43;40.97;;;21.03;;
6113;SDS011;3087;48.392;10.836;2022-12-18T07:32:09;42.97;;;20.00;;
6113;SDS011;3087;48.392;10.836;2022-12-18T07:34:34;37.60;;;19.50;;
6113;SDS011;3087;48.392;10.836;2022-12-18T07:37:00;37.00;;;20.23;;
6113;SDS011;3087;48.392;10.836;2022-12-18T07:39:26;37.83;;;20.10;;
6113;SDS011;3087;48.392;10.836;2022-12-18T07:41:51;39.77;;;20.33;;
6113;SDS011;3087;48.392;10.836;2022-12-18T07:44:36;39.17;;;19.83;;
6113;SDS011;3087;48.392;10.836;2022-12-18T07:47:02;36.57;;;19.83;;
6113;SDS011;3087;48.392;10.836;2022-12-18T07:49:28;39.73;;;20.80;;
6113;SDS011;3087;48.392;10.836;2022-12-18T07:51:54;38.17;;;18.87;;
6113;SDS011;3087;48.392;10.836;2022-12-18T07:54:21;40.07;;;19.63;;
6113;SDS011;3087;48.392;10.836;2022-12-18T07:56:47;38.43;;;19.57;;
6113;SDS011;3087;48.392;10.836;2022-12-18T07:59:13;39.83;;;20.07;;
6113;SDS011;3087;48.392;10.836;2022-12-18T08:01:39;33.27;;;18.13;;
6113;SDS011;3087;48.392;10.836;2022-12-18T08:04:04;33.43;;;18.63;;
6113;SDS011;3087;48.392;10.836;2022-12-18T08:06:30;36.13;;;18.53;;
6113;SDS011;3087;48.392;10.836;2022-12-18T08:08:56;34.30;;;19.20;;
6113;SDS011;3087;48.392;10.836;2022-12-18T08:11:22;36.97;;;19.67;;
6113;SDS011;3087;48.392;10.836;2022-12-18T08:13:49;35.90;;;19.97;;
6113;SDS011;3087;48.392;10.836;2022-12-18T08:16:15;36.53;;;19.70;;
6113;SDS011;3087;48.392;10.836;2022-12-18T08:18:41;36.37;;;19.80;;
6113;SDS011;3087;48.392;10.836;2022-12-18T08:21:07;40.97;;;18.97;;
6113;SDS011;3087;48.392;10.836;2022-12-18T08:23:46;34.67;;;19.70;;
6113;SDS011;3087;48.392;10.836;2022-12-18T08:26:11;35.63;;;20.07;;
6113;SDS011;3087;48.392;10.836;2022-12-18T08:28:38;35.40;;;18.53;;
6113;SDS011;3087;48.392;10.836;2022-12-18T08:31:04;37.90;;;20.07;;
6113;SDS011;3087;48.392;10.836;2022-12-18T08:33:29;35.50;;;18.77;;
6113;SDS011;3087;48.392;10.836;2022-12-18T08:35:55;32.87;;;17.90;;
6113;SDS011;3087;48.392;10.836;2022-12-18T08:38:20;36.27;;;18.57;;
6113;SDS011;3087;48.392;10.836;2022-12-18T08:40:47;38.27;;;20.10;;
6113;SDS011;3087;48.392;10.836;2022-12-18T08:43:13;38.90;;;20.30;;
6113;SDS011;3087;48.392;10.836;2022-12-18T08:45:57;38.10;;;20.47;;
6113;SDS011;3087;48.392;10.836;2022-12-18T08:48:22;38.77;;;20.83;;
6113;SDS011;3087;48.392;10.836;2022-12-18T08:50:58;37.33;;;20.03;;
6113;SDS011;3087;48.392;10.836;2022-12-18T08:53:24;43.77;;;22.27;;
6113;SDS011;3087;48.392;10.836;2022-12-18T08:55:51;45.77;;;22.63;;
6113;SDS011;3087;48.392;10.836;2022-12-18T08:58:16;39.50;;;20.00;;
6113;SDS011;3087;48.392;10.836;2022-12-18T09:00:42;36.93;;;19.93;;
6113;SDS011;3087;48.392;10.836;2022-12-18T09:03:14;40.00;;;20.37;;
6113;SDS011;3087;48.392;10.836;2022-12-18T09:05:42;34.27;;;18.67;;
6113;SDS011;3087;48.392;10.836;2022-12-18T09:08:08;33.23;;;17.20;;
6113;SDS011;3087;48.392;10.836;2022-12-18T09:10:34;31.23;;;17.70;;
6113;SDS011;3087;48.392;10.836;2022-12-18T09:13:06;36.23;;;18.93;;
6113;SDS011;3087;48.392;10.836;2022-12-18T09:15:31;33.27;;;18.27;;
6113;SDS011;3087;48.392;10.836;2022-12-18T09:17:57;34.83;;;19.67;;
6113;SDS011;3087;48.392;10.836;2022-12-18T09:20:22;35.57;;;18.97;;
6113;SDS011;3087;48.392;10.836;2022-12-18T09:22:48;36.33;;;18.83;;
6113;SDS011;3087;48.392;10.836;2022-12-18T09:25:13;42.03;;;24.03;;
6113;SDS011;3087;48.392;10.836;2022-12-18T09:27:39;33.60;;;18.30;;
6113;SDS011;3087;48.392;10.836;2022-12-18T09:30:05;34.63;;;17.97;;
6113;SDS011;3087;48.392;10.836;2022-12-18T09:32:31;32.10;;;18.83;;
6113;SDS011;3087;48.392;10.836;2022-12-18T09:34:57;37.23;;;19.53;;
6113;SDS011;3087;48.392;10.836;2022-12-18T09:37:23;36.17;;;19.73;;
6113;SDS011;3087;48.392;10.836;2022-12-18T09:39:50;39.07;;;18.90;;
6113;SDS011;3087;48.392;10.836;2022-12-18T09:42:21;38.03;;;20.50;;
6113;SDS011;3087;48.392;10.836;2022-12-18T09:44:52;35.73;;;19.30;;
6113;SDS011;3087;48.392;10.836;2022-12-18T09:49:45;34.20;;;19.03;;
6113;SDS011;3087;48.392;10.836;2022-12-18T09:52:17;39.03;;;20.67;;
6113;SDS011;3087;48.392;10.836;2022-12-18T09:54:50;34.90;;;19.37;;
6113;SDS011;3087;48.392;10.836;2022-12-18T09:57:22;37.07;;;20.33;;
6113;SDS011;3087;48.392;10.836;2022-12-18T09:59:56;37.30;;;18.97;;
6113;SDS011;3087;48.392;10.836;2022-12-18T10:02:29;42.97;;;21.50;;
6113;SDS011;3087;48.392;10.836;2022-12-18T10:05:13;37.73;;;21.47;;
6113;SDS011;3087;48.392;10.836;2022-12-18T10:10:56;39.03;;;21.57;;
6113;SDS011;3087;48.392;10.836;2022-12-18T10:13:33;39.27;;;19.80;;
6113;SDS011;3087;48.392;10.836;2022-12-18T10:16:13;34.67;;;19.73;;
6113;SDS011;3087;48.392;10.836;2022-12-18T10:21:58;36.87;;;20.50;;
6113;SDS011;3087;48.392;10.836;2022-12-18T10:27:17;41.80;;;21.40;;
6113;SDS011;3087;48.392;10.836;2022-12-18T10:29:46;39.93;;;21.43;;
6113;SDS011;3087;48.392;10.836;2022-12-18T10:32:15;41.50;;;20.40;;
6113;SDS011;3087;48.392;10.836;2022-12-18T10:34:50;40.17;;;20.90;;
6113;SDS011;3087;48.392;10.836;2022-12-18T10:37:19;38.40;;;21.20;;
6113;SDS011;3087;48.392;10.836;2022-12-18T10:39:47;36.87;;;19.67;;
6113;SDS011;3087;48.392;10.836;2022-12-18T10:42:32;42.47;;;21.83;;
6113;SDS011;3087;48.392;10.836;2022-12-18T10:45:16;37.47;;;20.13;;
6113;SDS011;3087;48.392;10.836;2022-12-18T10:47:46;36.63;;;21.03;;
6113;SDS011;3087;48.392;10.836;2022-12-18T10:50:19;39.43;;;20.37;;
6113;SDS011;3087;48.392;10.836;2022-12-18T10:52:57;45.43;;;21.93;;
6113;SDS011;3087;48.392;10.836;2022-12-18T10:55:27;42.43;;;20.60;;
6113;SDS011;3087;48.392;10.836;2022-12-18T11:01:02;42.53;;;21.47;;
6113;SDS011;3087;48.392;10.836;2022-12-18T11:03:44;38.77;;;21.33;;
6113;SDS011;3087;48.392;10.836;2022-12-18T11:06:12;38.60;;;20.97;;
6113;SDS011;3087;48.392;10.836;2022-12-18T11:08:38;37.67;;;21.40;;
6113;SDS011;3087;48.392;10.836;2022-12-18T11:11:07;42.03;;;21.77;;
6113;SDS011;3087;48.392;10.836;2022-12-18T11:13:47;41.80;;;21.77;;
6113;SDS011;3087;48.392;10.836;2022-12-18T11:16:42;45.50;;;22.40;;
6113;SDS011;3087;48.392;10.836;2022-12-18T11:19:13;40.13;;;21.07;;
6113;SDS011;3087;48.392;10.836;2022-12-18T11:21:41;43.13;;;22.53;;
6113;SDS011;3087;48.392;10.836;2022-12-18T11:24:14;40.40;;;22.10;;
6113;SDS011;3087;48.392;10.836;2022-12-18T11:26:50;37.53;;;22.03;;
6113;SDS011;3087;48.392;10.836;2022-12-18T11:29:17;36.83;;;20.50;;
6113;SDS011;3087;48.392;10.836;2022-12-18T11:31:47;43.77;;;22.40;;
6113;SDS011;3087;48.392;10.836;2022-12-18T11:36:51;40.17;;;21.10;;
6113;SDS011;3087;48.392;10.836;2022-12-18T11:39:19;42.30;;;22.67;;
6113;SDS011;3087;48.392;10.836;2022-12-18T11:49:55;48.33;;;25.10;;
6113;SDS011;3087;48.392;10.836;2022-12-18T11:52:26;41.00;;;23.80;;
6113;SDS011;3087;48.392;10.836;2022-12-18T11:55:01;52.27;;;29.83;;
6113;SDS011;3087;48.392;10.836;2022-12-18T12:00:20;43.10;;;26.00;;
6113;SDS011;3087;48.392;10.836;2022-12-18T12:11:30;38.47;;;21.17;;
6113;SDS011;3087;48.392;10.836;2022-12-18T12:17:18;39.10;;;21.20;;
6113;SDS011;3087;48.392;10.836;2022-12-18T12:22:24;39.03;;;20.13;;
6113;SDS011;3087;48.392;10.836;2022-12-18T12:27:45;45.93;;;23.13;;
6113;SDS011;3087;48.392;10.836;2022-12-18T12:40:23;37.67;;;22.57;;
6113;SDS011;3087;48.392;10.836;2022-12-18T12:42:53;40.83;;;22.80;;
6113;SDS011;3087;48.392;10.836;2022-12-18T12:48:17;44.57;;;23.17;;
6113;SDS011;3087;48.392;10.836;2022-12-18T12:51:09;37.80;;;20.30;;
6113;SDS011;3087;48.392;10.836;2022-12-18T12:53:39;35.67;;;20.33;;
6113;SDS011;3087;48.392;10.836;2022-12-18T12:56:06;37.63;;;20.03;;
6113;SDS011;3087;48.392;10.836;2022-12-18T12:58:41;35.97;;;20.83;;
6113;SDS011;3087;48.392;10.836;2022-12-18T13:06:29;37.77;;;21.10;;
6113;SDS011;3087;48.392;10.836;2022-12-18T13:09:07;40.57;;;22.00;;
6113;SDS011;3087;48.392;10.836;2022-12-18T13:14:21;38.00;;;20.03;;
6113;SDS011;3087;48.392;10.836;2022-12-18T13:16:49;41.77;;;21.63;;
6113;SDS011;3087;48.392;10.836;2022-12-18T13:19:23;39.37;;;21.07;;
6113;SDS011;3087;48.392;10.836;2022-12-18T13:21:52;35.97;;;20.57;;
6113;SDS011;3087;48.392;10.836;2022-12-18T13:26:53;37.67;;;20.40;;
6113;SDS011;3087;48.392;10.836;2022-12-18T13:29:54;37.80;;;20.70;;
6113;SDS011;3087;48.392;10.836;2022-12-18T13:32:20;39.90;;;20.80;;
6113;SDS011;3087;48.392;10.836;2022-12-18T13:37:51;38.30;;;19.37;;
6113;SDS011;3087;48.392;10.836;2022-12-18T13:46:17;39.83;;;19.80;;
6113;SDS011;3087;48.392;10.836;2022-12-18T13:48:57;36.87;;;20.13;;
6113;SDS011;3087;48.392;10.836;2022-12-18T13:51:26;39.03;;;20.37;;
6113;SDS011;3087;48.392;10.836;2022-12-18T13:53:58;37.50;;;20.90;;
6113;SDS011;3087;48.392;10.836;2022-12-18T13:56:30;37.77;;;21.07;;
6113;SDS011;3087;48.392;10.836;2022-12-18T14:01:45;35.03;;;20.30;;
6113;SDS011;3087;48.392;10.836;2022-12-18T14:04:32;39.47;;;19.37;;
6113;SDS011;3087;48.392;10.836;2022-12-18T14:07:02;38.93;;;20.03;;
6113;SDS011;3087;48.392;10.836;2022-12-18T14:09:42;34.83;;;18.47;;
6113;SDS011;3087;48.392;10.836;2022-12-18T14:12:31;35.03;;;19.10;;
6113;SDS011;3087;48.392;10.836;2022-12-18T14:15:25;37.60;;;20.07;;
6113;SDS011;3087;48.392;10.836;2022-12-18T14:18:19;46.67;;;22.20;;
6113;SDS011;3087;48.392;10.836;2022-12-18T14:21:00;40.80;;;20.23;;
6113;SDS011;3087;48.392;10.836;2022-12-18T14:29:41;38.03;;;21.20;;
6113;SDS011;3087;48.392;10.836;2022-12-18T14:34:44;41.13;;;21.00;;
6113;SDS011;3087;48.392;10.836;2022-12-18T14:37:12;40.70;;;20.73;;
6113;SDS011;3087;48.392;10.836;2022-12-18T14:39:39;35.03;;;19.97;;
6113;SDS011;3087;48.392;10.836;2022-12-18T14:42:05;37.90;;;20.03;;
6113;SDS011;3087;48.392;10.836;2022-12-18T14:44:30;42.33;;;20.53;;
6113;SDS011;3087;48.392;10.836;2022-12-18T14:46:56;42.17;;;22.87;;
6113;SDS011;3087;48.392;10.836;2022-12-18T14:51:54;49.20;;;26.63;;
6113;SDS011;3087;48.392;10.836;2022-12-18T14:54:21;78.13;;;36.53;;
6113;SDS011;3087;48.392;10.836;2022-12-18T14:56:49;42.60;;;22.77;;
6113;SDS011;3087;48.392;10.836;2022-12-18T14:59:20;75.37;;;37.30;;
6113;SDS011;3087;48.392;10.836;2022-12-18T15:02:34;53.27;;;25.43;;
6113;SDS011;3087;48.392;10.836;2022-12-18T15:04:44;47.80;;;23.83;;
6113;SDS011;3087;48.392;10.836;2022-12-18T15:14:59;42.00;;;22.03;;
6113;SDS011;3087;48.392;10.836;2022-12-18T15:17:25;39.43;;;20.70;;
6113;SDS011;3087;48.392;10.836;2022-12-18T15:19:53;44.00;;;23.43;;
6113;SDS011;3087;48.392;10.836;2022-12-18T15:22:26;43.13;;;22.30;;
6113;SDS011;3087;48.392;10.836;2022-12-18T15:24:58;41.77;;;22.93;;
6113;SDS011;3087;48.392;10.836;2022-12-18T15:27:34;38.23;;;20.93;;
6113;SDS011;3087;48.392;10.836;2022-12-18T15:30:16;40.83;;;20.87;;
6113;SDS011;3087;48.392;10.836;2022-12-18T15:32:44;38.97;;;20.20;;
6113;SDS011;3087;48.392;10.836;2022-12-18T15:37:36;44.77;;;21.50;;
6113;SDS011;3087;48.392;10.836;2022-12-18T15:40:02;46.97;;;23.40;;
6113;SDS011;3087;48.392;10.836;2022-12-18T15:42:29;44.73;;;22.83;;
6113;SDS011;3087;48.392;10.836;2022-12-18T15:45:13;43.67;;;21.53;;
6113;SDS011;3087;48.392;10.836;2022-12-18T15:47:39;43.87;;;22.40;;
6113;SDS011;3087;48.392;10.836;2022-12-18T15:50:07;46.47;;;24.27;;
6113;SDS011;3087;48.392;10.836;2022-12-18T15:52:36;45.70;;;23.33;;
6113;SDS011;3087;48.392;10.836;2022-12-18T15:55:05;50.53;;;23.47;;
6113;SDS011;3087;48.392;10.836;2022-12-18T15:58:07;49.73;;;23.07;;
6113;SDS011;3087;48.392;10.836;2022-12-18T16:00:34;47.03;;;23.93;;
6113;SDS011;3087;48.392;10.836;2022-12-18T16:03:01;46.13;;;25.73;;
6113;SDS011;3087;48.392;10.836;2022-12-18T16:05:28;49.23;;;24.30;;
6113;SDS011;3087;48.392;10.836;2022-12-18T16:07:53;53.97;;;26.37;;
6113;SDS011;3087;48.392;10.836;2022-12-18T16:10:19;56.53;;;26.57;;
6113;SDS011;3087;48.392;10.836;2022-12-18T16:12:45;50.87;;;25.63;;
6113;SDS011;3087;48.392;10.836;2022-12-18T16:15:14;51.83;;;26.57;;
6113;SDS011;3087;48.392;10.836;2022-12-18T16:17:41;56.97;;;27.00;;
6113;SDS011;3087;48.392;10.836;2022-12-18T16:20:17;53.80;;;25.07;;
6113;SDS011;3087;48.392;10.836;2022-12-18T16:22:47;51.07;;;25.20;;
6113;SDS011;3087;48.392;10.836;2022-12-18T16:25:20;48.30;;;24.27;;
6113;SDS011;3087;48.392;10.836;2022-12-18T16:27:48;54.43;;;26.20;;
6113;SDS011;3087;48.392;10.836;2022-12-18T16:30:18;53.87;;;26.20;;
6113;SDS011;3087;48.392;10.836;2022-12-18T16:32:46;51.40;;;25.20;;
6113;SDS011;3087;48.392;10.836;2022-12-18T16:35:13;52.07;;;26.33;;
6113;SDS011;3087;48.392;10.836;2022-12-18T16:37:40;49.20;;;24.93;;
6113;SDS011;3087;48.392;10.836;2022-12-18T16:40:07;54.13;;;25.60;;
6113;SDS011;3087;48.392;10.836;2022-12-18T16:42:34;53.37;;;26.37;;
6113;SDS011;3087;48.392;10.836;2022-12-18T16:45:01;56.27;;;26.27;;
6113;SDS011;3087;48.392;10.836;2022-12-18T16:47:27;53.17;;;24.97;;
6113;SDS011;3087;48.392;10.836;2022-12-18T16:49:53;46.70;;;25.20;;
6113;SDS011;3087;48.392;10.836;2022-12-18T16:52:19;49.43;;;24.57;;
6113;SDS011;3087;48.392;10.836;2022-12-18T16:54:45;57.50;;;26.97;;
6113;SDS011;3087;48.392;10.836;2022-12-18T16:57:18;56.50;;;27.40;;
6113;SDS011;3087;48.392;10.836;2022-12-18T16:59:44;53.97;;;25.70;;
6113;SDS011;3087;48.392;10.836;2022-12-18T17:02:14;49.50;;;24.50;;
6113;SDS011;3087;48.392;10.836;2022-12-18T17:04:42;50.23;;;24.73;;